• Join FlightAware (Why Join?)
  • Login
  • US Flag 
02:11PM EDT


 

Airport Tracker/Info


-or-


 

Live Flight TrackerFlight Track Log ✈ UAL4108 ✈ 20-Apr-2013 ✈ KLIT - KIAH

Flight Track Log - Related Links

Times and Time Zones

All times are in EDT time to prevent confusion due to time zone crossing. See the UAL4108 flight status page for this flight to view local times or setup timezone preferences in your user account.

Time Position Orientation Groundspeed Altitude Reporting Facility
EDT Latitude Longitude Course Direction KTS MPH feet Rate Location/Type
07:18AM 34.7156 -92.2494 193° South 162 186 1,000  Level Memphis Center
07:19AM 34.6594 -92.2458 177° South 211 243 3,600 2,400 Climbing Memphis Center
07:21AM 34.4875 -92.3933 190° South  Level Estimated
07:21AM 34.5283 -92.2100 167° South 279 321 8,300  Level Memphis Center
07:22AM 34.3982 -92.3619 164° South  Level FlightAware Approximate
07:22AM 34.4425 -92.2258 189° South 291 335 11,100  Level Memphis Center
07:23AM 34.3181 -92.4191 193° South  Level Estimated
07:23AM 34.3506 -92.2414 188° South 314 361 12,600  Level Memphis Center
07:24AM 34.2564 -92.2569 188° South 337 388 14,800 1,920 Climbing Memphis Center
07:25AM 34.1558 -92.2772 189° South 353 406 16,500 1,500 Climbing Memphis Center
07:26AM 34.0469 -92.3025 191° South 360 414 17,900 1,500 Climbing Memphis Center
07:27AM 33.9425 -92.3228 189° South 369 425 19,500 1,800 Climbing Memphis Center
07:28AM 33.8419 -92.3406 188° South 375 432 21,500 1,260 Climbing Memphis Center
07:29AM 33.7375 -92.3558 187° South 374 430 22,000 240 Climbing Fort Worth Center
07:30AM 33.6236 -92.3772 189° South 410 472 22,000  Level Fort Worth Center
07:31AM 33.5036 -92.3992 189° South 432 497 22,000  Level Fort Worth Center
07:32AM 33.3875 -92.4206 189° South 432 497 22,000  Level Fort Worth Center
07:33AM 33.2672 -92.4422 189° South 432 497 22,000  Level Fort Worth Center
07:34AM 33.1472 -92.4639 189° South 437 503 22,000  Level Fort Worth Center
07:35AM 33.0292 -92.4878 190° South 437 503 22,000  Level Fort Worth Center
07:36AM 32.9131 -92.5067 188° South 443 510 22,000  Level Fort Worth Center
07:37AM 32.7928 -92.5281 189° South 443 510 22,000  Level Fort Worth Center
07:38AM 32.6725 -92.5494 189° South 443 510 22,000  Level Fort Worth Center
07:40AM 32.4675 -92.5894 189° South 436 502 22,000  Level Houston Center
07:41AM 32.3486 -92.6097 188° South 434 499 22,000  Level Houston Center
07:42AM 32.2286 -92.6308 188° South 434 499 22,000  Level Houston Center
07:43AM 32.1100 -92.6528 189° South 432 497 22,000  Level Houston Center
07:44AM 31.9919 -92.6756 189° South 432 497 22,000  Level Houston Center
07:45AM 31.8961 -92.7536 215° Southwest 421 484 22,000  Level Houston Center
07:46AM 31.8053 -92.8403 219° Southwest 422 486 22,000  Level Houston Center
07:47AM 31.7156 -92.9275 220° Southwest 421 484 22,000  Level Houston Center
07:48AM 31.6247 -93.0142 219° Southwest 423 487 22,000  Level Houston Center
07:49AM 31.5344 -93.1008 219° Southwest 423 487 22,000  Level Houston Center
07:50AM 31.4453 -93.1872 220° Southwest 422 486 22,000  Level Houston Center
07:51AM 31.3386 -93.2889 219° Southwest 414 476 22,000  Level Houston Center
07:52AM 31.2600 -93.3619 218° Southwest 416 479 22,000  Level Houston Center
07:53AM 31.1706 -93.4494 220° Southwest 421 484 22,000  Level Houston Center
07:54AM 31.0794 -93.5353 219° Southwest 423 487 22,000  Level Houston Center
07:55AM 30.9883 -93.6214 219° Southwest 423 487 22,000  Level Houston Center
07:56AM 30.8964 -93.7081 219° Southwest 427 491 22,000  Level Houston Center
07:57AM 30.7875 -93.8111 219° Southwest 423 487 22,000  Level Houston Center
07:58AM 30.6961 -93.8981 219° Southwest 426 490 22,000 -120 Level Houston Center
07:59AM 30.6036 -93.9847 219° Southwest 429 494 21,800 -1,140 Descending Houston Center
08:00AM 30.5269 -94.0567 219° Southwest 414 476 20,000 -2,400 Descending Houston Center
08:00AM 30.4997 -94.0797 216° Southwest 398 458 19,100 -2,520 Descending Houston Center
08:01AM 30.4356 -94.1414 220° Southwest 378 435 17,000 -2,580 Descending Houston Center
08:02AM 30.3578 -94.2150 219° Southwest 366 421 14,200 -2,520 Descending Houston Center
08:03AM 30.3006 -94.3111 235° Southwest 367 422 12,000 -1,140 Descending Houston Center
08:04AM 30.2519 -94.4078 240° Southwest 355 409 12,000 -300 Level Houston Center
08:05AM 30.1997 -94.5094 239° Southwest 351 404 11,500 -900 Descending Houston Center
08:06AM 30.1569 -94.5906 239° Southwest 308 354 10,300 -1,560 Descending Houston Center
08:07AM 30.1211 -94.6703 243° Southwest 283 326 8,400 -1,860 Descending Houston Center
08:08AM 30.1006 -94.7539 254° West 273 314 6,600 -1,740 Descending Houston Center
08:09AM 30.0769 -94.8369 252° West 273 314 4,900 -1,320 Descending Houston Center
08:10AM 30.0539 -94.9231 253° West 280 322 4,000 -540 Descending Houston Center
08:11AM 30.0317 -95.0081 253° West 279 321 3,900 -480 Descending Houston Center
08:12AM 30.0072 -95.1089 254° West 273 314 3,100 -840 Descending Houston Center